aviador You're here:

YSSY Decoded Metar

SYDNEY in AUSTRALIA
Report Time2017-06-27 22:00:00
UTC Time2017-06-27 22:37:02
Flight Rules vfr VFR
Wind300° at 05 kt
W.Decomp.*RWY 25: 3.9 kt HW 3.1 kt RCW
RWY 34: 3.1 kt HW 3.9 kt LCW
W.Rank300° ranks 9
Current wind is below 300° avg. (8.0)
Visibility9999 m
Phenomena:N/A
Clouds:N/A
Expected CloudBase > 1,600 ft AGL from Temp-Dew spread
CeilingNone
Temp13°C (ISA -2)
Dew Point09°C (77% RH)
AAT11.0°C
QNH1022 hPa
Density Alt-374 ft
Elevation10 ft
Report Wrong Elevation
Raw Report
METAR YSSY 272200Z 30005KT CAVOK 13/09 Q1022
NOSIG=

Extra information for YSSY:More info

Metar Taf Metar & Taf Last 4 Metars F.Rules Stats Wind Profile Meteogram Temp Stats Airport Information Weather charts Add Link Nearby VenuesMetar ALERT Operation Metar Decoded Social comments